Mountain Home, AR (72653)

1:34 PM CST on February 06, 2016 (GMT -0600)
NAEC Mtn Home | | Change Station
CLOSE
Current Station
Personal Weather Station
Location: Mountain Home, AR
Elevation: 912 ft
Nearby Weather Stations

Elev 912 ft 36.35 °N, 92.36 °W | Updated 4 minutes ago

Clear
Clear
51.6 °F
Feels Like 51.6 °F
N
3.7
Wind Variable Wind from SE
Gusts 10.4 mph

Today
High -- | Low -- °F
--% Chance of Precip.
Yesterday
High -- | Low -- °F
Precip. -- in
Pressure 30.31 in
Visibility 10.0 miles
Clouds Clear
Dew Point 16 °F
Humidity 23%
Rainfall 0.00 in
Snow Depth Not available.
7:06 AM 5:40 PM
Waning Crescent, 4% visible
METAR KBPK 061853Z AUTO VRB05KT 10SM CLR 12/M06 A3030 RMK AO2 SLP262 T01171061
Pressure 30.31 in
Visibility 10.0 miles
Clouds Clear
Dew Point 16 °F
Humidity 23%
Rainfall 0.00 in
Snow Depth Not available.
7:06 AM 5:40 PM
Waning Crescent, 4% visible
METAR KBPK 061853Z AUTO VRB05KT 10SM CLR 12/M06 A3030 RMK AO2 SLP262 T01171061

10-Day Weather Forecast

Almanac

Astronomy

Feb. 06, 2016 Rise Set
Actual Time
Civil Twilight
Nautical Twilight
Astronomical Twilight
Moon
Length of Visible Light
Length of Day
Tomorrow will be .
, % of the Moon is Illuminated

Today's Extremes

State Highs State Lows

Community

WunderPhotos

Upload Photos

1,891,037 photos uploaded!

WunderBlog® & News

Nearby

Air Quality

  Air Quality AQ Index Pollutant
Not available.

Snow Depth

Station Depth Elevation

Earthquake Activity

City Distance Mag. Time & Date
Minimum magnitude displayed is 2.5.

Coastal Water Temperatures

Place Temperature

Stations

Nearby Weather Stations

Station Location Temp. Windchill Dew Point Humidity Wind Precip. Elev Updated Type
                   

Watches & Warnings

There are currently no watches in effect.